createdAt,value
2023-01-10T00:01:52.365Z,9.95
2023-01-10T00:04:19.091Z,10.23
2023-01-10T00:06:45.697Z,10.60
2023-01-10T00:09:12.327Z,9.75
2023-01-10T00:11:57.538Z,9.00
2023-01-10T00:14:24.071Z,9.25
2023-01-10T00:16:50.617Z,9.18
2023-01-10T00:19:17.263Z,9.63
2023-01-10T00:21:43.837Z,8.60
2023-01-10T00:24:18.859Z,8.65
2023-01-10T00:26:50.934Z,8.38
2023-01-10T00:29:24.048Z,8.48
2023-01-10T00:31:50.567Z,8.18
2023-01-10T00:34:17.451Z,9.07
2023-01-10T00:36:45.649Z,7.97
2023-01-10T00:39:12.289Z,8.32
2023-01-10T00:41:57.951Z,7.38
2023-01-10T00:44:24.467Z,7.97
2023-01-10T00:46:50.931Z,7.70
2023-01-10T00:49:17.550Z,7.32
2023-01-10T00:51:45.049Z,8.38
2023-01-10T00:54:12.814Z,7.30
2023-01-10T00:56:39.430Z,7.38
2023-01-10T00:59:06.664Z,7.60
2023-01-10T01:01:33.555Z,6.78
2023-01-10T01:04:00.296Z,6.68
2023-01-10T01:06:26.950Z,6.72
2023-01-10T01:08:53.500Z,6.25
2023-01-10T01:11:20.075Z,6.78
2023-01-10T01:13:46.549Z,6.53
2023-01-10T01:16:13.573Z,6.68
2023-01-10T01:18:40.144Z,7.05
2023-01-10T01:21:06.775Z,6.40
2023-01-10T01:23:34.833Z,5.88
2023-01-10T01:26:01.637Z,6.28
2023-01-10T01:28:28.458Z,6.28
2023-01-10T01:30:55.009Z,5.38
2023-01-10T01:33:21.617Z,5.50
2023-01-10T01:35:49.742Z,5.80
2023-01-10T01:38:17.462Z,6.32
2023-01-10T01:40:44.965Z,5.95
2023-01-10T01:43:29.167Z,5.90
2023-01-10T01:46:00.408Z,5.53
2023-01-10T01:48:36.698Z,5.07
2023-01-10T01:51:21.090Z,5.70
2023-01-10T01:53:50.984Z,5.75
2023-01-10T01:56:24.456Z,5.15
2023-01-10T01:59:05.666Z,4.88
2023-01-10T02:01:34.047Z,4.90
2023-01-10T02:04:12.224Z,5.25
2023-01-10T02:06:39.157Z,4.78
2023-01-10T02:09:14.530Z,5.00
2023-01-10T02:11:41.170Z,4.60
2023-01-10T02:14:10.331Z,4.63
2023-01-10T02:16:36.873Z,4.47
2023-01-10T02:19:08.060Z,4.75
2023-01-10T02:21:58.883Z,4.35
2023-01-10T02:24:40.618Z,4.70
2023-01-10T02:27:33.082Z,4.40
2023-01-10T02:30:13.951Z,4.70
2023-01-10T02:33:05.845Z,3.83
2023-01-10T02:36:09.361Z,4.03
2023-01-10T02:38:40.995Z,4.25
2023-01-10T02:41:22.394Z,4.38
2023-01-10T02:43:54.451Z,3.90
2023-01-10T02:46:27.429Z,4.35
2023-01-10T02:48:55.248Z,3.72
2023-01-10T02:51:21.746Z,4.38
2023-01-10T02:53:57.733Z,3.72
2023-01-10T02:56:27.125Z,3.97
2023-01-10T02:59:11.947Z,3.08
2023-01-10T03:01:38.532Z,3.70
2023-01-10T03:04:41.691Z,3.72
2023-01-10T03:07:25.238Z,3.53
2023-01-10T03:09:58.442Z,4.20
2023-01-10T03:12:45.416Z,3.58
2023-01-10T03:15:15.535Z,3.40
2023-01-10T03:17:44.839Z,3.13
2023-01-10T03:20:11.987Z,3.50
2023-01-10T03:22:40.009Z,3.50
2023-01-10T03:25:10.493Z,3.40
2023-01-10T03:28:04.613Z,3.70
2023-01-10T03:30:44.535Z,3.10
2023-01-10T03:33:12.899Z,3.83
2023-01-10T03:36:08.841Z,3.60
2023-01-10T03:39:05.397Z,2.92
2023-01-10T03:41:49.474Z,3.33
2023-01-10T03:47:41.273Z,2.53
2023-01-10T03:50:20.063Z,3.00
2023-01-10T03:52:46.900Z,2.47
2023-01-10T03:55:19.304Z,2.70
2023-01-10T03:57:45.934Z,2.90
2023-01-10T04:00:14.067Z,2.65
2023-01-10T04:02:40.586Z,3.00
2023-01-10T04:05:07.443Z,2.47
2023-01-10T04:07:34.447Z,2.70
2023-01-10T04:10:01.025Z,2.65
2023-01-10T04:12:27.636Z,2.75
2023-01-10T04:14:54.126Z,3.35
2023-01-10T04:17:20.696Z,2.17
2023-01-10T04:19:47.234Z,2.47
2023-01-10T04:22:14.148Z,2.80
2023-01-10T04:24:41.165Z,2.40
2023-01-10T04:27:07.708Z,2.63
2023-01-10T04:29:34.251Z,2.38
2023-01-10T04:32:01.108Z,3.15
2023-01-10T04:34:27.876Z,2.35
2023-01-10T04:36:54.444Z,2.30
2023-01-10T04:39:20.942Z,2.20
2023-01-10T04:41:47.420Z,2.72
2023-01-10T04:44:13.977Z,2.42
2023-01-10T04:46:40.483Z,2.72
2023-01-10T04:49:07.367Z,2.47
2023-01-10T04:51:33.925Z,2.13
2023-01-10T04:54:00.483Z,2.40
2023-01-10T04:56:27.025Z,2.40
2023-01-10T04:58:54.162Z,2.53
2023-01-10T05:01:23.955Z,2.80
2023-01-10T05:03:51.908Z,2.45
2023-01-10T05:06:19.656Z,2.10
2023-01-10T05:08:46.370Z,2.38
2023-01-10T05:11:13.373Z,2.42
2023-01-10T05:13:41.409Z,2.47
2023-01-10T05:16:08.422Z,2.45
2023-01-10T05:18:35.065Z,2.58
2023-01-10T05:21:11.061Z,2.40
2023-01-10T05:23:38.648Z,2.63
2023-01-10T05:26:19.271Z,2.33
2023-01-10T05:28:46.054Z,2.30
2023-01-10T05:31:15.228Z,2.60
2023-01-10T05:33:51.408Z,2.50
2023-01-10T05:36:18.988Z,2.10
2023-01-10T05:38:45.957Z,2.10
2023-01-10T05:41:12.487Z,2.53
2023-01-10T05:43:39.000Z,2.25
2023-01-10T05:46:05.931Z,2.58
2023-01-10T05:48:32.594Z,2.45
2023-01-10T05:50:59.114Z,2.70
2023-01-10T05:53:25.922Z,2.60
2023-01-10T05:56:00.574Z,2.55
2023-01-10T05:58:28.841Z,2.20
2023-01-10T06:00:56.658Z,2.72
2023-01-10T06:03:23.490Z,2.83
2023-01-10T06:05:50.059Z,2.72
2023-01-10T06:08:17.343Z,2.80
2023-01-10T06:10:44.365Z,2.47
2023-01-10T06:13:12.196Z,3.05
2023-01-10T06:15:39.290Z,2.70
2023-01-10T06:18:06.211Z,2.92
2023-01-10T06:20:32.706Z,3.35
2023-01-10T06:23:02.225Z,2.92
2023-01-10T06:25:29.386Z,2.92
2023-01-10T06:27:56.512Z,2.90
2023-01-10T06:30:23.251Z,3.20
2023-01-10T06:32:49.775Z,2.88
2023-01-10T06:35:18.009Z,2.53
2023-01-10T06:37:44.781Z,3.03
2023-01-10T06:40:11.813Z,2.80
2023-01-10T06:42:39.811Z,2.75
2023-01-10T06:45:06.666Z,2.88
2023-01-10T06:47:33.188Z,3.30
2023-01-10T06:49:59.708Z,2.83
2023-01-10T06:52:26.231Z,3.22
2023-01-10T06:54:53.177Z,3.08
2023-01-10T06:57:19.797Z,3.53
2023-01-10T06:59:46.321Z,2.75
2023-01-10T07:02:13.279Z,3.22
2023-01-10T07:04:39.814Z,3.70
2023-01-10T07:07:06.300Z,3.78
2023-01-10T07:09:32.842Z,3.20
2023-01-10T07:11:59.357Z,2.83
2023-01-10T07:14:25.900Z,3.33
2023-01-10T07:16:52.413Z,2.90
2023-01-10T07:19:19.975Z,3.03
2023-01-10T07:21:46.964Z,3.17
2023-01-10T07:24:13.786Z,3.45
2023-01-10T07:26:40.605Z,3.72
2023-01-10T07:29:07.454Z,2.83
2023-01-10T07:31:34.090Z,3.80
2023-01-10T07:34:00.835Z,3.17
2023-01-10T07:36:27.439Z,2.72
2023-01-10T07:38:54.045Z,3.22
2023-01-10T07:41:20.608Z,3.45
2023-01-10T07:43:48.800Z,2.67
2023-01-10T07:46:15.618Z,3.88
2023-01-10T07:48:42.546Z,3.05
2023-01-10T07:51:09.671Z,3.28
2023-01-10T07:53:36.338Z,2.92
2023-01-10T07:56:03.878Z,2.88
2023-01-10T07:58:30.671Z,3.13
2023-01-10T08:01:02.414Z,3.63
2023-01-10T08:03:33.363Z,2.83
2023-01-10T08:06:05.898Z,2.70
2023-01-10T08:08:33.531Z,2.92
2023-01-10T08:11:02.793Z,3.38
2023-01-10T08:13:30.320Z,3.15
2023-01-10T08:15:57.237Z,3.20
2023-01-10T08:18:24.823Z,3.42
2023-01-10T08:20:53.109Z,3.00
2023-01-10T08:23:20.775Z,3.45
2023-01-10T08:25:47.475Z,2.60
2023-01-10T08:28:15.002Z,3.17
2023-01-10T08:30:41.603Z,2.90
2023-01-10T08:33:09.031Z,3.78
2023-01-10T08:35:40.172Z,3.10
2023-01-10T08:38:06.948Z,3.92
2023-01-10T08:40:33.513Z,3.10
2023-01-10T08:43:02.039Z,3.25
2023-01-10T08:45:29.261Z,3.15
2023-01-10T08:47:56.143Z,3.03
2023-01-10T08:50:24.080Z,3.55
2023-01-10T08:52:51.333Z,2.72
2023-01-10T08:55:18.923Z,2.95
2023-01-10T08:57:45.604Z,3.05
2023-01-10T09:00:13.109Z,3.70
2023-01-10T09:02:40.590Z,3.42
2023-01-10T09:05:12.286Z,4.03
2023-01-10T09:07:48.790Z,2.75
2023-01-10T09:10:15.444Z,3.80
2023-01-10T09:12:57.045Z,3.38
2023-01-10T09:15:25.975Z,3.05
2023-01-10T09:17:56.960Z,3.55
2023-01-10T09:20:25.830Z,3.28
2023-01-10T09:22:53.097Z,3.40
2023-01-10T09:25:19.924Z,3.17
2023-01-10T09:27:46.657Z,3.58
2023-01-10T09:30:14.079Z,3.28
2023-01-10T09:32:40.742Z,3.08
2023-01-10T09:35:07.538Z,3.63
2023-01-10T09:37:34.933Z,3.38
2023-01-10T09:40:01.540Z,3.45
2023-01-10T09:42:31.399Z,3.55
2023-01-10T09:45:16.485Z,3.22
2023-01-10T09:48:05.439Z,3.42
2023-01-10T09:50:36.039Z,3.42
2023-01-10T09:53:11.575Z,2.72
2023-01-10T09:55:39.096Z,3.53
2023-01-10T09:58:11.162Z,3.00
2023-01-10T10:00:49.351Z,3.50
2023-01-10T10:03:21.990Z,3.72
2023-01-10T10:05:50.532Z,2.85
2023-01-10T10:08:20.011Z,3.15
2023-01-10T10:11:17.277Z,2.88
2023-01-10T10:13:58.829Z,3.03
2023-01-10T10:16:48.794Z,3.38
2023-01-10T10:19:40.376Z,3.97
2023-01-10T10:22:20.611Z,2.95
2023-01-10T10:25:11.860Z,3.00
2023-01-10T10:27:57.002Z,3.45
2023-01-10T10:30:35.244Z,3.78
2023-01-10T10:33:16.409Z,3.00
2023-01-10T10:35:50.567Z,3.45
2023-01-10T10:38:29.941Z,3.63
2023-01-10T10:40:59.920Z,3.17
2023-01-10T10:43:37.464Z,3.80
2023-01-10T10:46:09.234Z,3.65
2023-01-10T10:48:58.036Z,2.97
2023-01-10T10:51:48.058Z,3.67
2023-01-10T10:54:15.104Z,3.95
2023-01-10T10:56:43.105Z,3.38
2023-01-10T10:59:11.960Z,3.05
2023-01-10T11:01:38.802Z,3.80
2023-01-10T11:04:10.324Z,3.33
2023-01-10T11:06:38.654Z,4.03
2023-01-10T11:09:06.826Z,3.83
2023-01-10T11:11:40.940Z,3.67
2023-01-10T11:14:08.770Z,3.67
2023-01-10T11:16:39.928Z,3.05
2023-01-10T11:19:26.785Z,3.10
2023-01-10T11:21:59.808Z,3.70
2023-01-10T11:24:40.806Z,3.08
2023-01-10T11:27:18.120Z,3.25
2023-01-10T11:29:56.248Z,3.35
2023-01-10T11:32:30.637Z,2.67
2023-01-10T11:35:01.501Z,2.95
2023-01-10T11:37:32.849Z,2.90
2023-01-10T11:40:08.170Z,2.85
2023-01-10T11:42:34.751Z,3.38
2023-01-10T11:45:13.521Z,4.03
2023-01-10T11:47:45.682Z,2.85
2023-01-10T11:50:19.277Z,3.20
2023-01-10T11:52:46.413Z,2.80
2023-01-10T11:55:20.031Z,2.65
2023-01-10T11:57:54.744Z,3.38
2023-01-10T12:00:21.916Z,2.85
2023-01-10T12:02:50.188Z,2.83
2023-01-10T12:05:22.269Z,2.50
2023-01-10T12:07:59.447Z,3.33
2023-01-10T12:10:28.753Z,3.00
2023-01-10T12:12:58.137Z,2.85
2023-01-10T12:15:28.194Z,3.58
2023-01-10T12:18:00.221Z,2.42
2023-01-10T12:20:29.926Z,2.75
2023-01-10T12:23:00.912Z,2.50
2023-01-10T12:25:34.141Z,2.60
2023-01-10T12:28:01.632Z,2.75
2023-01-10T12:30:43.626Z,2.53
2023-01-10T12:33:27.433Z,2.47
2023-01-10T12:36:13.374Z,2.92
2023-01-10T12:39:10.597Z,2.70
2023-01-10T12:42:13.313Z,2.15
2023-01-10T12:44:43.026Z,3.10
2023-01-10T12:47:13.668Z,2.90
2023-01-10T12:50:03.940Z,2.60
2023-01-10T12:52:52.644Z,2.28
2023-01-10T12:55:21.692Z,2.88
2023-01-10T12:57:52.237Z,2.75
2023-01-10T13:00:40.336Z,2.60
2023-01-10T13:03:19.320Z,3.22
2023-01-10T13:05:49.513Z,2.53
2023-01-10T13:08:19.574Z,2.22
2023-01-10T13:10:49.765Z,3.35
2023-01-10T13:13:37.066Z,3.17
2023-01-10T13:16:28.329Z,2.67
2023-01-10T13:19:10.027Z,3.17
2023-01-10T13:21:38.590Z,3.10
2023-01-10T13:24:19.776Z,3.25
2023-01-10T13:27:02.224Z,2.88
2023-01-10T13:29:40.684Z,2.70
2023-01-10T13:32:31.051Z,2.92
2023-01-10T13:35:14.062Z,3.30
2023-01-10T13:37:43.230Z,3.03
2023-01-10T13:40:21.555Z,2.90
2023-01-10T13:43:33.435Z,2.70
2023-01-10T13:46:15.359Z,2.67
2023-01-10T13:49:03.471Z,3.45
2023-01-10T13:51:31.387Z,2.78
2023-01-10T13:54:02.453Z,2.47
2023-01-10T13:56:38.154Z,2.92
2023-01-10T13:59:40.664Z,2.65
2023-01-10T14:02:32.038Z,3.10
2023-01-10T14:05:07.782Z,2.75
2023-01-10T14:07:45.736Z,3.15
2023-01-10T14:10:27.206Z,2.92
2023-01-10T14:13:09.927Z,3.25
2023-01-10T14:15:45.859Z,2.45
2023-01-10T14:18:28.975Z,3.40
2023-01-10T14:21:28.642Z,2.10
2023-01-10T14:23:57.570Z,3.03
2023-01-10T14:26:32.875Z,2.90
2023-01-10T14:29:02.209Z,2.92
2023-01-10T14:31:29.266Z,2.40
2023-01-10T14:33:58.843Z,2.60
2023-01-10T14:36:35.920Z,3.40
2023-01-10T14:39:06.033Z,3.15
2023-01-10T14:41:38.276Z,2.53
2023-01-10T14:44:31.941Z,3.15
2023-01-10T14:47:02.947Z,3.05
2023-01-10T14:49:31.086Z,2.58
2023-01-10T14:52:15.846Z,3.00
2023-01-10T14:54:42.475Z,2.83
2023-01-10T14:57:21.094Z,3.28
2023-01-10T14:59:48.032Z,2.78
2023-01-10T15:02:23.949Z,3.30
2023-01-10T15:04:57.125Z,2.70
2023-01-10T15:07:25.387Z,3.70
2023-01-10T15:09:56.296Z,2.88
2023-01-10T15:12:24.703Z,2.50
2023-01-10T15:14:59.399Z,2.92
2023-01-10T15:17:27.656Z,2.60
2023-01-10T15:19:55.308Z,2.45
2023-01-10T15:22:33.694Z,3.70
2023-01-10T15:25:08.133Z,2.95
2023-01-10T15:27:37.015Z,3.13
2023-01-10T15:30:09.030Z,3.15
2023-01-10T15:32:39.377Z,2.90
2023-01-10T15:35:08.885Z,2.75
2023-01-10T15:37:40.792Z,2.92
2023-01-10T15:40:21.761Z,2.35
2023-01-10T15:42:48.407Z,3.40
2023-01-10T15:45:38.969Z,3.38
2023-01-10T15:48:24.510Z,2.92
2023-01-10T15:51:20.517Z,2.53
2023-01-10T15:53:55.714Z,1.92
2023-01-10T15:56:37.792Z,2.67
2023-01-10T15:59:06.430Z,2.53
2023-01-10T16:01:34.168Z,2.58
2023-01-10T16:04:04.408Z,2.10
2023-01-10T16:06:36.518Z,2.25
2023-01-10T16:09:08.802Z,2.10
2023-01-10T16:11:57.463Z,2.40
2023-01-10T16:14:24.310Z,3.13
2023-01-10T16:16:51.614Z,2.30
2023-01-10T16:19:18.159Z,2.75
2023-01-10T16:21:49.745Z,2.10
2023-01-10T16:24:20.062Z,2.17
2023-01-10T16:26:48.040Z,2.03
2023-01-10T16:29:14.710Z,2.35
2023-01-10T16:31:41.884Z,2.05
2023-01-10T16:34:09.171Z,1.98
2023-01-10T16:36:35.945Z,1.88
2023-01-10T16:39:15.490Z,2.53
2023-01-10T16:42:02.797Z,2.00
2023-01-10T16:44:30.664Z,1.50
2023-01-10T16:46:57.348Z,1.88
2023-01-10T16:49:24.718Z,1.40
2023-01-10T16:51:52.232Z,1.88
2023-01-10T16:54:21.497Z,2.15
2023-01-10T16:56:49.035Z,1.40
2023-01-10T16:59:18.115Z,1.52
2023-01-10T17:01:49.414Z,1.65
2023-01-10T17:04:21.642Z,1.45
2023-01-10T17:06:48.234Z,1.52
2023-01-10T17:09:23.983Z,1.20
2023-01-10T17:11:57.535Z,1.30
2023-01-10T17:14:24.156Z,1.30
2023-01-10T17:16:50.760Z,1.25
2023-01-10T17:19:17.350Z,1.30
2023-01-10T17:21:43.869Z,1.13
2023-01-10T17:24:12.102Z,1.20
2023-01-10T17:26:38.679Z,1.33
2023-01-10T17:29:05.296Z,1.17
2023-01-10T17:31:31.864Z,1.35
2023-01-10T17:33:58.414Z,1.02
2023-01-10T17:36:29.677Z,1.15
2023-01-10T17:38:57.066Z,1.23
2023-01-10T17:41:23.563Z,1.48
2023-01-10T17:43:50.141Z,1.15
2023-01-10T17:46:17.899Z,1.20
2023-01-10T17:48:45.076Z,1.27
2023-01-10T17:51:13.208Z,1.42
2023-01-10T17:53:40.803Z,1.00
2023-01-10T17:56:08.034Z,1.25
2023-01-10T17:58:35.768Z,1.38
2023-01-10T18:01:02.508Z,0.90
2023-01-10T18:03:29.099Z,1.38
2023-01-10T18:05:57.547Z,1.13
2023-01-10T18:08:25.376Z,1.42
2023-01-10T18:10:58.204Z,1.15
2023-01-10T18:13:25.029Z,1.07
2023-01-10T18:15:52.474Z,1.40
2023-01-10T18:18:21.230Z,1.45
2023-01-10T18:20:47.710Z,1.92
2023-01-10T18:23:22.299Z,1.10
2023-01-10T18:26:00.237Z,1.00
2023-01-10T18:28:40.043Z,1.50
2023-01-10T18:31:11.804Z,1.33
2023-01-10T18:33:38.469Z,1.60
2023-01-10T18:36:06.500Z,1.33
2023-01-10T18:38:34.794Z,1.58
2023-01-10T18:41:01.529Z,1.00
2023-01-10T18:43:29.786Z,1.40
2023-01-10T18:46:05.854Z,1.40
2023-01-10T18:48:32.495Z,1.23
2023-01-10T18:51:00.671Z,1.42
2023-01-10T18:53:27.233Z,1.30
2023-01-10T18:55:58.435Z,1.58
2023-01-10T18:58:31.209Z,1.52
2023-01-10T19:00:58.084Z,1.50
2023-01-10T19:03:24.737Z,1.45
2023-01-10T19:05:51.277Z,1.48
2023-01-10T19:08:17.903Z,1.70
2023-01-10T19:11:11.357Z,1.40
2023-01-10T19:13:32.173Z,1.40
2023-01-10T19:16:29.295Z,1.70
2023-01-10T19:18:58.440Z,1.60
2023-01-10T19:21:27.089Z,1.70
2023-01-10T19:23:57.932Z,1.48
2023-01-10T19:26:24.897Z,1.48
2023-01-10T19:28:52.193Z,1.42
2023-01-10T19:31:21.012Z,1.35
2023-01-10T19:33:48.242Z,1.30
2023-01-10T19:36:15.926Z,1.20
2023-01-10T19:38:42.646Z,1.35
2023-01-10T19:41:09.331Z,1.40
2023-01-10T19:43:35.868Z,1.40
2023-01-10T19:46:10.091Z,1.50
2023-01-10T19:48:38.214Z,1.52
2023-01-10T19:51:13.026Z,1.67
2023-01-10T19:53:42.264Z,1.30
2023-01-10T19:56:10.124Z,1.30
2023-01-10T19:58:38.151Z,1.83
2023-01-10T20:01:16.810Z,1.55
2023-01-10T20:03:46.551Z,1.65
2023-01-10T20:06:16.991Z,2.00
2023-01-10T20:08:47.594Z,1.60
2023-01-10T20:11:15.625Z,1.50
2023-01-10T20:13:48.203Z,1.65
2023-01-10T20:16:20.553Z,1.70
2023-01-10T20:18:48.444Z,1.73
2023-01-10T20:21:17.113Z,1.70
2023-01-10T20:23:44.874Z,1.50
2023-01-10T20:26:27.753Z,1.50
2023-01-10T20:28:56.063Z,1.67
2023-01-10T20:31:24.158Z,1.63
2023-01-10T20:33:51.036Z,1.45
2023-01-10T20:36:19.974Z,1.50
2023-01-10T20:38:47.057Z,1.65
2023-01-10T20:41:16.295Z,1.60
2023-01-10T20:43:43.679Z,1.70
2023-01-10T20:46:13.062Z,1.55
2023-01-10T20:48:40.674Z,1.75
2023-01-10T20:51:08.569Z,1.85
2023-01-10T20:53:35.273Z,1.85
2023-01-10T20:56:07.189Z,1.80
2023-01-10T20:58:37.055Z,2.38
2023-01-10T21:01:04.086Z,1.42
2023-01-10T21:03:30.600Z,1.90
2023-01-10T21:05:59.322Z,1.50
2023-01-10T21:08:26.407Z,1.80
2023-01-10T21:10:53.125Z,1.60
2023-01-10T21:13:19.699Z,1.60
2023-01-10T21:15:47.316Z,1.73
2023-01-10T21:18:16.066Z,2.00
2023-01-10T21:20:43.820Z,1.70
2023-01-10T21:23:10.655Z,1.52
2023-01-10T21:25:37.409Z,1.83
2023-01-10T21:28:09.286Z,1.60
2023-01-10T21:30:36.721Z,1.83
2023-01-10T21:33:04.306Z,1.98
2023-01-10T21:35:31.538Z,1.98
2023-01-10T21:37:58.204Z,1.58
2023-01-10T21:40:25.733Z,1.52
2023-01-10T21:42:52.978Z,1.90
2023-01-10T21:45:21.109Z,1.80
2023-01-10T21:47:49.276Z,1.75
2023-01-10T21:50:16.553Z,1.90
2023-01-10T21:52:43.474Z,1.60
2023-01-10T21:55:13.407Z,1.48
2023-01-10T21:57:40.021Z,1.58
2023-01-10T22:00:07.663Z,1.55
2023-01-10T22:02:35.117Z,1.20
2023-01-10T22:05:02.737Z,1.90
2023-01-10T22:07:29.457Z,1.73
2023-01-10T22:09:56.011Z,1.45
2023-01-10T22:12:24.342Z,1.52
2023-01-10T22:14:50.923Z,1.50
2023-01-10T22:17:17.519Z,1.77
2023-01-10T22:19:44.143Z,1.27
2023-01-10T22:22:11.439Z,1.60
2023-01-10T22:24:38.084Z,1.63
2023-01-10T22:27:05.061Z,1.40
2023-01-10T22:29:31.603Z,1.65
2023-01-10T22:31:58.188Z,1.20
2023-01-10T22:34:25.008Z,1.50
2023-01-10T22:36:51.545Z,1.40
2023-01-10T22:39:18.109Z,1.55
2023-01-10T22:41:44.690Z,1.33
2023-01-10T22:44:18.948Z,1.55
2023-01-10T22:46:46.454Z,1.35
2023-01-10T22:49:13.337Z,1.70
2023-01-10T22:51:39.865Z,1.67
2023-01-10T22:54:06.630Z,1.60
2023-01-10T22:56:33.376Z,1.70
2023-01-10T22:58:59.906Z,1.70
2023-01-10T23:01:26.508Z,1.35
2023-01-10T23:03:53.058Z,1.52
2023-01-10T23:06:19.957Z,1.60
2023-01-10T23:08:46.500Z,1.40
2023-01-10T23:11:16.322Z,1.25
2023-01-10T23:13:44.083Z,1.50
2023-01-10T23:16:15.058Z,1.70
2023-01-10T23:18:41.716Z,1.55
2023-01-10T23:21:09.020Z,1.63
2023-01-10T23:23:36.255Z,1.50
2023-01-10T23:26:07.438Z,1.40
2023-01-10T23:28:46.922Z,1.50
2023-01-10T23:31:15.829Z,1.60
2023-01-10T23:33:42.372Z,1.63
2023-01-10T23:36:09.823Z,1.77
2023-01-10T23:38:37.053Z,1.60
2023-01-10T23:41:03.582Z,1.40
2023-01-10T23:43:30.683Z,1.38
2023-01-10T23:45:57.623Z,1.70
2023-01-10T23:48:24.206Z,1.98
2023-01-10T23:50:51.003Z,1.95
2023-01-10T23:53:18.459Z,1.58
2023-01-10T23:55:45.015Z,1.95
2023-01-10T23:58:11.802Z,1.35
